Time;durP1;ratioP1;P1;durP2;ratioP2;P2;SDS_P1;SDS_P2;PMS_P1;PMS_P2;Temp;Humidity;BMP_temperature;BMP_pressure;BME280_temperature;BME280_humidity;BME280_pressure;Samples;Min_cycle;Max_cycle;Signal;HPM_P1;HPM_P2
2022/06/23 00:00:26;;;;;;;13.07;11.77;;;18.20;99.90;;;;;;4916655;29;20477;-79
2022/06/23 00:02:53;;;;;;;14.38;11.88;;;18.20;99.90;;;;;;4918101;29;20039;-79
2022/06/23 00:05:22;;;;;;;15.02;12.98;;;18.20;99.90;;;;;;4917235;29;20032;-79
2022/06/23 00:07:52;;;;;;;14.02;12.73;;;18.20;99.90;;;;;;4916419;29;20040;-79
2022/06/23 00:10:24;;;;;;;14.73;13.15;;;18.20;99.90;;;;;;4916628;29;20362;-79
2022/06/23 00:12:51;;;;;;;16.45;13.45;;;18.20;99.90;;;;;;4916670;29;20067;-79
2022/06/23 00:15:37;;;;;;;15.57;13.95;;;18.20;99.90;;;;;;4917808;29;20092;-79
2022/06/23 00:18:06;;;;;;;18.33;15.02;;;18.20;99.90;;;;;;4917659;29;20057;-79
2022/06/23 00:21:04;;;;;;;15.35;13.82;;;18.20;99.90;;;;;;4917678;29;20059;-79
2022/06/23 00:23:39;;;;;;;18.27;14.67;;;18.20;99.90;;;;;;4916491;29;20040;-79
2022/06/23 00:26:27;;;;;;;15.95;14.35;;;18.20;99.90;;;;;;4931993;29;20051;-79
2022/06/23 00:29:14;;;;;;;15.90;14.23;;;18.20;99.90;;;;;;4917444;29;20036;-79
2022/06/23 00:31:45;;;;;;;16.38;13.68;;;18.20;99.90;;;;;;4917261;29;20420;-79
2022/06/23 00:34:18;;;;;;;16.75;14.88;;;18.20;99.90;;;;;;4916378;29;20393;-79
2022/06/23 00:37:00;;;;;;;21.63;14.98;;;18.20;99.90;;;;;;4917455;29;20025;-79
2022/06/23 00:39:35;;;;;;;16.77;14.77;;;18.20;99.90;;;;;;4917795;29;20369;-79
2022/06/23 00:42:05;;;;;;;15.50;13.90;;;18.20;99.90;;;;;;4917559;29;20055;-79
2022/06/23 00:44:34;;;;;;;14.73;13.27;;;18.20;99.90;;;;;;4916316;29;20036;-79
2022/06/23 00:47:04;;;;;;;14.73;12.98;;;18.10;99.90;;;;;;4917764;29;20070;-79
2022/06/23 00:49:41;;;;;;;15.43;13.82;;;18.10;99.90;;;;;;4916678;29;20063;-79
2022/06/23 00:52:25;;;;;;;15.95;14.40;;;18.10;99.90;;;;;;4916420;29;20055;-79
2022/06/23 00:54:55;;;;;;;20.02;14.68;;;18.00;99.90;;;;;;4917480;29;20077;-79
2022/06/23 00:57:31;;;;;;;14.77;13.27;;;18.00;99.90;;;;;;4917170;29;20024;-80
2022/06/23 01:00:21;;;;;;;15.75;13.23;;;18.00;99.90;;;;;;4917646;29;20467;-80
2022/06/23 01:02:56;;;;;;;16.80;13.50;;;18.00;99.90;;;;;;4931957;29;20414;-79
2022/06/23 01:05:34;;;;;;;18.52;14.38;;;17.90;99.90;;;;;;4916060;29;20040;-79
2022/06/23 01:08:18;;;;;;;15.57;13.80;;;17.90;99.90;;;;;;4917389;29;20036;-79
2022/06/23 01:11:12;;;;;;;16.25;14.13;;;18.00;99.90;;;;;;4915679;29;20047;-79
2022/06/23 01:13:47;;;;;;;17.17;15.38;;;18.00;99.90;;;;;;4931888;29;20468;-79
2022/06/23 01:16:24;;;;;;;18.02;15.43;;;18.00;99.90;;;;;;4917619;29;20024;-79
2022/06/23 01:19:12;;;;;;;19.50;15.25;;;18.00;99.90;;;;;;4919347;29;20063;-79
2022/06/23 01:21:44;;;;;;;17.50;14.68;;;18.00;99.90;;;;;;4921117;29;20036;-79
2022/06/23 01:24:26;;;;;;;18.08;14.75;;;18.00;99.90;;;;;;4920927;29;20508;-79
2022/06/23 01:27:01;;;;;;;18.92;14.27;;;18.00;99.90;;;;;;4920469;29;20047;-79
2022/06/23 01:30:12;;;;;;;21.00;15.57;;;18.00;99.90;;;;;;4919501;29;20039;-79
2022/06/23 01:32:56;;;;;;;16.85;14.73;;;18.00;99.90;;;;;;4920387;29;20028;-79
2022/06/23 01:35:50;;;;;;;15.43;13.75;;;18.00;99.90;;;;;;4919737;29;20024;-79
2022/06/23 01:38:23;;;;;;;14.13;12.70;;;17.90;99.90;;;;;;4909636;29;20548;-79
2022/06/23 01:40:57;;;;;;;14.25;12.77;;;17.90;99.90;;;;;;4920375;29;20024;-80
2022/06/23 01:43:36;;;;;;;15.93;13.05;;;17.80;99.90;;;;;;4920377;29;20477;-80
2022/06/23 01:46:27;;;;;;;14.02;12.63;;;17.80;99.90;;;;;;4919574;29;20028;-79
2022/06/23 01:49:02;;;;;;;15.55;14.02;;;17.70;99.90;;;;;;4914594;29;20040;-79
2022/06/23 01:51:45;;;;;;;15.43;13.73;;;17.70;99.90;;;;;;4920468;29;20040;-80
2022/06/23 01:54:19;;;;;;;15.63;13.95;;;17.60;99.90;;;;;;4920177;29;20028;-79
2022/06/23 01:57:03;;;;;;;15.05;13.57;;;17.60;99.90;;;;;;4920409;29;20028;-80
2022/06/23 02:00:03;;;;;;;15.05;13.45;;;17.50;99.90;;;;;;4919080;29;20031;-79
2022/06/23 02:02:56;;;;;;;16.83;14.75;;;17.50;99.90;;;;;;4919992;29;20076;-79
2022/06/23 02:05:44;;;;;;;17.17;15.32;;;17.40;99.90;;;;;;4891195;29;20063;-79
2022/06/23 02:08:31;;;;;;;19.08;15.57;;;17.40;99.90;;;;;;4876051;29;20052;-79
2022/06/23 02:11:18;;;;;;;21.30;15.40;;;17.30;99.90;;;;;;4919786;29;20092;-79
2022/06/23 02:14:06;;;;;;;15.98;14.05;;;17.30;99.90;;;;;;4910865;29;20035;-79
2022/06/23 02:16:45;;;;;;;18.15;15.88;;;17.30;99.90;;;;;;4919676;29;20036;-80
2022/06/23 02:19:44;;;;;;;17.92;16.02;;;17.30;99.90;;;;;;4919690;29;20079;-80
2022/06/23 02:22:28;;;;;;;18.77;15.73;;;17.20;99.90;;;;;;4903523;29;20043;-80
2022/06/23 02:25:03;;;;;;;23.48;17.67;;;17.20;99.90;;;;;;4918886;29;20039;-79
2022/06/23 02:27:38;;;;;;;18.35;15.55;;;17.20;99.90;;;;;;4917572;29;20511;-79
2022/06/23 02:30:04;;;;;;;18.08;15.07;;;17.10;99.90;;;;;;4919550;29;20111;-80
2022/06/23 02:32:32;;;;;;;17.05;15.35;;;17.10;99.90;;;;;;4918289;29;20063;-79
2022/06/23 02:35:14;;;;;;;18.48;15.60;;;17.10;99.90;;;;;;4919125;29;20024;-79
2022/06/23 02:38:21;;;;;;;18.40;16.48;;;17.00;99.90;;;;;;4918299;29;20087;-80
2022/06/23 02:41:22;;;;;;;22.23;15.27;;;17.00;99.90;;;;;;4866528;29;20032;-80
2022/06/23 02:44:05;;;;;;;21.02;16.05;;;16.90;99.90;;;;;;4915704;29;20040;-80
2022/06/23 02:46:52;;;;;;;18.52;14.80;;;16.90;99.90;;;;;;4919197;29;20108;-80
2022/06/23 02:49:35;;;;;;;19.00;15.75;;;16.90;99.90;;;;;;4918876;29;20500;-80
2022/06/23 02:52:20;;;;;;;18.42;15.70;;;16.90;99.90;;;;;;4918086;29;20051;-80
2022/06/23 02:55:01;;;;;;;25.35;16.67;;;16.90;99.90;;;;;;4933744;29;20032;-80
2022/06/23 02:57:33;;;;;;;19.58;17.10;;;16.90;99.90;;;;;;4918970;29;20029;-80
2022/06/23 03:00:22;;;;;;;19.83;16.00;;;16.90;99.90;;;;;;4933675;29;20036;-80
2022/06/23 03:03:26;;;;;;;20.27;15.15;;;16.80;99.90;;;;;;4919170;29;20024;-79
2022/06/23 03:06:14;;;;;;;17.30;15.50;;;16.80;99.90;;;;;;4826738;29;20034;-80
2022/06/23 03:08:54;;;;;;;17.15;15.25;;;16.80;99.90;;;;;;4842106;29;20053;-80
2022/06/23 03:14:42;;;;;;;17.70;15.90;;;16.70;99.90;;;;;;4842530;29;20082;-82
2022/06/23 03:17:32;;;;;;;18.42;15.70;;;16.70;99.90;;;;;;4841330;29;20110;-81
2022/06/23 03:20:10;;;;;;;18.38;14.80;;;16.70;99.90;;;;;;4826772;29;20057;-82
2022/06/23 03:22:52;;;;;;;19.05;16.52;;;16.70;99.90;;;;;;4826839;29;20138;-82
2022/06/23 03:25:27;;;;;;;19.20;16.20;;;16.70;99.90;;;;;;4826503;29;20033;-81
2022/06/23 03:28:04;;;;;;;21.50;15.40;;;16.70;99.90;;;;;;4826888;29;20042;-81
2022/06/23 03:30:47;;;;;;;20.23;15.70;;;16.70;99.90;;;;;;4841920;29;20067;-81
2022/06/23 03:33:27;;;;;;;19.02;15.73;;;16.80;99.90;;;;;;4841956;29;20040;-81
2022/06/23 03:36:01;;;;;;;16.58;14.88;;;16.80;99.90;;;;;;4860625;29;20075;-82
2022/06/23 03:41:37;;;;;;;18.30;14.25;;;16.80;99.90;;;;;;4937091;29;20103;-82
2022/06/23 03:44:06;;;;;;;17.65;15.38;;;16.80;99.90;;;;;;4920277;29;20032;-81
2022/06/23 03:46:38;;;;;;;15.85;14.18;;;16.80;99.90;;;;;;4920041;29;20020;-81
2022/06/23 03:49:28;;;;;;;19.55;15.27;;;16.90;99.90;;;;;;4937236;29;20042;-81
2022/06/23 03:51:57;;;;;;;16.65;14.55;;;16.90;99.90;;;;;;4919862;29;20020;-81
2022/06/23 03:54:36;;;;;;;;;;;17.00;99.90;;;;;;4937003;29;20028;-63
2022/06/23 03:57:12;;;;;;;15.07;13.52;;;17.10;99.90;;;;;;4936866;29;19907;-64
2022/06/23 04:00:03;;;;;;;15.98;13.18;;;17.10;99.90;;;;;;4920477;29;20338;-78
2022/06/23 04:02:37;;;;;;;15.02;12.05;;;17.10;99.90;;;;;;4935650;29;20040;-77
2022/06/23 04:05:05;;;;;;;14.13;12.68;;;17.20;99.90;;;;;;4936825;29;20083;-72
2022/06/23 04:07:40;;;;;;;14.38;11.70;;;17.20;99.90;;;;;;4936783;29;20042;-80
2022/06/23 04:10:11;;;;;;;12.80;11.50;;;17.20;99.90;;;;;;4920107;29;20469;-62
2022/06/23 04:12:42;;;;;;;14.07;12.10;;;17.30;99.90;;;;;;4936880;29;20058;-62
2022/06/23 04:15:13;;;;;;;14.95;12.35;;;17.30;99.90;;;;;;4919612;29;20034;-62
2022/06/23 04:17:43;;;;;;;12.80;11.60;;;17.30;99.90;;;;;;4919225;29;20035;-62
2022/06/23 04:20:27;;;;;;;16.33;11.57;;;17.30;99.90;;;;;;4936769;29;20024;-80
2022/06/23 04:23:27;;;;;;;12.95;11.68;;;17.30;99.90;;;;;;4919760;29;20142;-83
2022/06/23 04:26:14;;;;;;;12.55;11.35;;;17.40;99.90;;;;;;4916500;29;20056;-91
2022/06/23 04:28:50;;;;;;;12.88;11.02;;;17.40;99.90;;;;;;4917862;29;20491;-82
2022/06/23 04:31:27;;;;;;;12.43;11.02;;;17.40;99.90;;;;;;4916957;29;20028;-82
2022/06/23 04:33:54;;;;;;;12.43;10.98;;;17.40;99.90;;;;;;4917765;29;20083;-82
2022/06/23 04:36:23;;;;;;;11.77;10.68;;;17.50;99.90;;;;;;4916506;29;20036;-83
2022/06/23 04:38:54;;;;;;;;;;;17.50;99.90;;;;;;4916769;29;20032;-82
2022/06/23 04:41:48;;;;;;;11.80;10.30;;;17.60;99.90;;;;;;4917693;29;20304;-84
2022/06/23 04:44:25;;;;;;;15.95;11.23;;;17.70;99.90;;;;;;4917636;29;20032;-76
2022/06/23 04:46:57;;;;;;;11.50;10.30;;;17.80;99.90;;;;;;4916798;29;20032;-84
2022/06/23 04:49:32;;;;;;;12.13;10.88;;;17.90;99.90;;;;;;4917762;29;20358;-84
2022/06/23 04:52:03;;;;;;;12.75;11.07;;;18.00;99.90;;;;;;4920495;29;20028;-83
2022/06/23 04:54:43;;;;;;;11.15;9.90;;;18.10;99.90;;;;;;4920158;29;20035;-82
2022/06/23 04:57:17;;;;;;;11.40;9.73;;;18.20;99.90;;;;;;4921385;29;20028;-82
2022/06/23 04:59:48;;;;;;;10.55;9.48;;;18.30;99.90;;;;;;4921211;29;20030;-83
2022/06/23 05:02:19;;;;;;;10.57;9.57;;;18.50;99.90;;;;;;4921563;29;20039;-82
2022/06/23 05:04:51;;;;;;;12.35;9.43;;;18.60;99.90;;;;;;4920989;29;20036;-83
2022/06/23 05:07:27;;;;;;;12.38;10.13;;;18.60;99.90;;;;;;4921325;29;20036;-83
2022/06/23 05:09:59;;;;;;;11.38;9.52;;;18.70;99.90;;;;;;4920256;29;20366;-83
2022/06/23 05:12:29;;;;;;;10.65;8.60;;;18.80;99.90;;;;;;4921352;29;20032;-83
2022/06/23 05:14:59;;;;;;;10.85;9.75;;;18.80;99.90;;;;;;4920879;29;20074;-82
2022/06/23 05:17:31;;;;;;;11.07;9.27;;;18.90;99.90;;;;;;4920928;29;20028;-83
2022/06/23 05:20:00;;;;;;;9.98;8.98;;;18.90;99.90;;;;;;4919604;29;20036;-83
2022/06/23 05:22:38;;;;;;;10.88;9.15;;;18.90;99.90;;;;;;4920777;29;20028;-83
2022/06/23 05:25:16;;;;;;;11.90;8.93;;;19.00;99.90;;;;;;4920682;29;20031;-83
2022/06/23 05:27:45;;;;;;;9.05;8.18;;;19.00;99.90;;;;;;4919690;29;20095;-83
2022/06/23 05:30:14;;;;;;;10.15;8.63;;;19.20;99.90;;;;;;4920942;29;20021;-83
2022/06/23 05:32:52;;;;;;;10.63;9.43;;;19.20;99.90;;;;;;4920882;29;20031;-84
2022/06/23 05:35:42;;;;;;;11.10;8.73;;;19.30;99.90;;;;;;4919606;29;20185;-84
2022/06/23 05:38:40;;;;;;;9.73;8.73;;;19.40;99.90;;;;;;4920409;29;20028;-84
2022/06/23 05:41:26;;;;;;;9.05;8.20;;;19.70;99.90;;;;;;4920081;29;20051;-85
2022/06/23 05:43:54;;;;;;;8.35;7.55;;;19.90;99.90;;;;;;4905663;29;20119;-85
2022/06/23 05:46:23;;;;;;;8.48;7.60;;;20.20;99.90;;;;;;4919934;29;20489;-86
2022/06/23 05:49:01;;;;;;;8.30;7.13;;;20.50;99.90;;;;;;4919232;29;20110;-86
2022/06/23 05:51:59;;;;;;;11.30;7.25;;;20.70;99.90;;;;;;4919517;29;20039;-85
2022/06/23 05:54:24;;;;;;;7.00;6.40;;;20.90;99.90;;;;;;4909082;29;20505;-86
2022/06/23 05:57:02;;;;;;;7.55;5.78;;;21.00;99.90;;;;;;4920171;29;20036;-85
2022/06/23 05:59:27;;;;;;;7.78;5.82;;;21.00;99.90;;;;;;4919559;29;20070;-86
2022/06/23 06:02:10;;;;;;;6.28;5.70;;;21.00;99.90;;;;;;4918732;29;20056;-86
2022/06/23 06:04:45;;;;;;;6.78;5.95;;;21.00;99.90;;;;;;4918890;29;20028;-88
2022/06/23 06:07:17;;;;;;;7.05;5.90;;;21.10;99.90;;;;;;4920111;29;20079;-86
2022/06/23 06:09:44;;;;;;;7.03;6.30;;;21.10;99.90;;;;;;4911340;29;20032;-86
2022/06/23 06:12:09;;;;;;;8.88;6.65;;;21.10;99.90;;;;;;4919922;29;20020;-86
2022/06/23 06:14:53;;;;;;;7.93;6.75;;;21.10;99.90;;;;;;4920160;29;20533;-86
2022/06/23 06:17:22;;;;;;;8.68;6.45;;;21.20;99.90;;;;;;4919852;29;20055;-87
2022/06/23 06:19:49;;;;;;;;;;;21.30;99.90;;;;;;4919360;29;20035;-86
2022/06/23 06:22:22;;;;;;;6.65;5.97;;;21.50;99.90;;;;;;4920194;29;19907;-87
2022/06/23 06:24:52;;;;;;;5.82;5.43;;;21.80;99.90;;;;;;4920009;29;20101;-86
2022/06/23 06:27:19;;;;;;;6.80;5.35;;;22.10;99.90;;;;;;4920714;29;20052;-86
2022/06/23 06:29:46;;;;;;;5.30;4.90;;;22.60;99.90;;;;;;4918728;29;20469;-85
2022/06/23 06:32:30;;;;;;;6.22;5.03;;;22.90;99.90;;;;;;4918488;29;20139;-86
2022/06/23 06:35:26;;;;;;;6.53;4.78;;;23.10;99.90;;;;;;4918896;29;20028;-85
2022/06/23 06:38:09;;;;;;;5.07;4.57;;;23.40;99.90;;;;;;4920573;29;20043;-87
2022/06/23 06:40:38;;;;;;;5.82;4.60;;;23.60;99.90;;;;;;4922166;29;20025;-89
2022/06/23 06:43:09;;;;;;;6.38;4.57;;;23.70;99.90;;;;;;4920576;29;20028;-87
2022/06/23 06:45:37;;;;;;;6.38;4.45;;;23.60;99.90;;;;;;4920053;29;20063;-90
2022/06/23 06:48:09;;;;;;;5.30;4.80;;;23.70;99.90;;;;;;4920564;29;20095;-90
2022/06/23 06:50:46;;;;;;;5.70;4.30;;;23.90;99.90;;;;;;4920892;29;20032;-91
2022/06/23 06:53:19;;;;;;;6.93;4.57;;;24.10;99.90;;;;;;4920264;29;20104;-89
2022/06/23 06:55:49;;;;;;;6.68;4.57;;;24.40;99.90;;;;;;4919089;29;20176;-89
2022/06/23 06:58:22;;;;;;;7.05;5.03;;;24.60;99.90;;;;;;4919724;29;20032;-89
2022/06/23 07:01:00;;;;;;;5.63;5.05;;;24.30;99.90;;;;;;4904719;29;20485;-88
2022/06/23 07:03:27;;;;;;;6.53;5.50;;;24.10;99.90;;;;;;4919730;29;20088;-90
2022/06/23 07:06:14;;;;;;;5.43;4.93;;;24.10;99.90;;;;;;4919358;29;20028;-89
2022/06/23 07:09:25;;;;;;;7.13;4.60;;;24.30;99.90;;;;;;4918250;29;20056;-88
2022/06/23 07:12:06;;;;;;;8.50;5.70;;;24.20;99.90;;;;;;4898593;29;20119;-87
2022/06/23 07:14:47;;;;;;;9.77;4.63;;;24.40;99.90;;;;;;4918324;29;20464;-86
2022/06/23 07:17:27;;;;;;;5.45;4.72;;;24.60;99.90;;;;;;4919152;29;20532;-86
2022/06/23 07:20:01;;;;;;;5.00;4.50;;;24.70;99.90;;;;;;4919056;29;20034;-86
2022/06/23 07:22:35;;;;;;;8.48;5.68;;;25.00;99.90;;;;;;4918857;29;20040;-85
2022/06/23 07:25:04;;;;;;;7.82;4.97;;;25.30;99.90;;;;;;4919127;29;20042;-85
2022/06/23 07:27:39;;;;;;;;;;;25.60;99.90;;;;;;4918728;29;20084;-86
2022/06/23 07:30:15;;;;;;;4.55;4.15;;;26.00;99.90;;;;;;4918843;29;19907;-85
2022/06/23 07:32:57;;;;;;;7.15;4.05;;;26.50;99.90;;;;;;4919030;29;20028;-86
2022/06/23 07:35:41;;;;;;;5.28;4.20;;;26.30;99.90;;;;;;4901858;29;20057;-86
2022/06/23 07:38:22;;;;;;;5.15;4.25;;;26.70;99.90;;;;;;4918580;29;20451;-86
2022/06/23 07:40:55;;;;;;;3.80;3.50;;;27.00;99.90;;;;;;4917475;29;20032;-82
2022/06/23 07:43:41;;;;;;;9.20;3.97;;;27.30;99.90;;;;;;4918358;29;20422;-83
2022/06/23 07:46:07;;;;;;;5.07;3.72;;;27.50;99.90;;;;;;4918458;29;20024;-84
2022/06/23 07:48:35;;;;;;;5.57;3.80;;;28.00;99.70;;;;;;4901615;29;20098;-88
2022/06/23 07:51:08;;;;;;;5.05;3.85;;;28.30;97.70;;;;;;4918440;29;20043;-84
2022/06/23 07:53:45;;;;;;;4.70;3.95;;;28.50;96.70;;;;;;4918585;29;20055;-88
2022/06/23 07:56:25;;;;;;;7.90;3.60;;;29.00;96.90;;;;;;4918469;29;20469;-85
2022/06/23 07:58:58;;;;;;;4.50;2.95;;;29.30;91.70;;;;;;4901744;29;20472;-82
2022/06/23 08:01:35;;;;;;;4.50;3.38;;;29.60;90.70;;;;;;4918239;29;20051;-86
2022/06/23 08:04:24;;;;;;;4.65;3.33;;;29.80;90.80;;;;;;4918176;29;20032;-84
2022/06/23 08:06:50;;;;;;;4.53;3.63;;;30.20;87.50;;;;;;4901483;29;20028;-86
2022/06/23 08:09:30;;;;;;;3.95;3.50;;;30.60;84.90;;;;;;4918493;29;20040;-85
2022/06/23 08:17:48;;;;;;;8.45;4.15;;;28.50;87.30;;;;;;4918342;29;20047;-85
2022/06/23 08:20:17;;;;;;;9.38;3.28;;;27.70;91.10;;;;;;4901688;29;20400;-86
2022/06/23 08:22:44;;;;;;;4.10;3.15;;;27.20;93.60;;;;;;4918232;29;20064;-86
2022/06/23 08:25:10;;;;;;;6.28;3.70;;;27.20;97.50;;;;;;4918904;29;20024;-85
2022/06/23 08:27:40;;;;;;;6.55;3.13;;;27.50;97.10;;;;;;4907787;29;20496;-86
2022/06/23 08:30:13;;;;;;;5.40;3.35;;;28.40;95.90;;;;;;4907256;29;20039;-85
2022/06/23 08:32:40;;;;;;;9.85;3.63;;;29.00;91.00;;;;;;4924453;29;20396;-85
2022/06/23 08:35:12;;;;;;;5.10;3.70;;;29.20;90.80;;;;;;4924619;29;20103;-84
2022/06/23 08:38:04;;;;;;;3.30;3.05;;;29.30;88.30;;;;;;4924772;29;20032;-86
2022/06/23 08:41:01;;;;;;;6.63;3.10;;;29.60;84.80;;;;;;4899930;29;20108;-89
2022/06/23 08:43:42;;;;;;;4.90;3.13;;;29.90;83.10;;;;;;4909033;29;20032;-89
2022/06/23 08:46:25;;;;;;;3.63;2.90;;;30.00;82.40;;;;;;4928827;29;20028;-89
2022/06/23 08:49:06;;;;;;;3.28;2.85;;;30.70;78.10;;;;;;4915702;29;20123;-87
2022/06/23 08:51:59;;;;;;;6.13;3.22;;;30.10;79.40;;;;;;4907573;29;20432;-87
2022/06/23 08:54:53;;;;;;;4.18;3.22;;;29.50;81.70;;;;;;4907128;29;20028;-86
2022/06/23 08:57:19;;;;;;;5.40;3.10;;;28.80;85.30;;;;;;4924316;29;20036;-83
2022/06/23 09:00:00;;;;;;;7.40;3.65;;;28.20;89.70;;;;;;4907511;29;20035;-82
2022/06/23 09:02:43;;;;;;;6.72;3.03;;;27.60;91.20;;;;;;4924395;29;20028;-83
2022/06/23 09:05:34;;;;;;;6.18;3.80;;;27.20;92.30;;;;;;4924194;29;20032;-83
2022/06/23 09:08:24;;;;;;;6.28;3.08;;;27.10;92.50;;;;;;4889795;29;20044;-83
2022/06/23 09:11:25;;;;;;;7.20;3.30;;;27.20;97.70;;;;;;4907235;29;20028;-82
2022/06/23 09:14:21;;;;;;;7.82;2.97;;;27.70;96.20;;;;;;4907729;29;20052;-83
2022/06/23 09:16:59;;;;;;;3.15;2.80;;;27.90;92.10;;;;;;4923943;29;20051;-82
2022/06/23 09:19:43;;;;;;;3.57;3.07;;;27.60;90.50;;;;;;4924300;29;20047;-82
2022/06/23 09:22:20;;;;;;;4.50;2.47;;;28.40;90.80;;;;;;4906780;29;20409;-82
2022/06/23 09:25:02;;;;;;;2.40;2.13;;;29.60;80.90;;;;;;4907417;29;20028;-82
2022/06/23 09:27:50;;;;;;;4.40;2.92;;;30.90;72.90;;;;;;4924990;29;20055;-86
2022/06/23 09:30:46;;;;;;;5.68;2.35;;;31.50;67.60;;;;;;4942817;29;20028;-86
2022/06/23 09:33:22;;;;;;;3.35;2.45;;;31.60;65.20;;;;;;4942758;29;20123;-85
2022/06/23 09:36:30;;;;;;;4.97;2.35;;;31.90;60.60;;;;;;4942776;29;20114;-85
2022/06/23 09:39:24;;;;;;;4.25;2.40;;;32.60;59.20;;;;;;4923421;29;20032;-85
2022/06/23 09:42:13;;;;;;;4.18;2.60;;;32.80;60.30;;;;;;4939494;29;20028;-85
2022/06/23 09:44:45;;;;;;;2.88;2.58;;;32.80;59.00;;;;;;4940017;29;20031;-83
2022/06/23 09:47:32;;;;;;;5.65;2.80;;;31.60;60.60;;;;;;4922949;29;20071;-84
2022/06/23 09:50:25;;;;;;;6.55;2.80;;;30.20;64.30;;;;;;4939557;29;20074;-83
2022/06/23 09:52:51;;;;;;;2.97;2.60;;;29.50;66.40;;;;;;4922859;29;20039;-84
2022/06/23 09:55:45;;;;;;;5.75;2.90;;;29.00;70.70;;;;;;4922978;29;20028;-84
2022/06/23 09:58:38;;;;;;;3.35;2.80;;;28.70;74.40;;;;;;4922699;29;20071;-83
2022/06/23 10:01:03;;;;;;;2.92;2.63;;;28.40;76.50;;;;;;4922599;29;20035;-83
2022/06/23 10:03:53;;;;;;;3.78;3.38;;;28.10;74.50;;;;;;4922049;29;20024;-84
2022/06/23 10:06:42;;;;;;;4.43;3.00;;;27.90;76.50;;;;;;4939408;29;20027;-83
2022/06/23 10:09:27;;;;;;;4.10;2.50;;;28.70;81.10;;;;;;4939200;29;20042;-84
2022/06/23 10:12:28;;;;;;;3.17;2.80;;;30.10;75.60;;;;;;4939319;29;20070;-83
2022/06/23 10:15:24;;;;;;;9.90;6.30;;;30.80;68.90;;;;;;4925793;29;20379;-83
2022/06/23 10:18:08;;;;;;;4.50;2.60;;;30.60;67.20;;;;;;4922036;29;20476;-83
2022/06/23 10:20:52;;;;;;;4.35;2.60;;;31.20;63.30;;;;;;4939066;29;20102;-86
2022/06/23 10:23:41;;;;;;;6.50;2.60;;;31.80;61.20;;;;;;4921854;29;20023;-88
2022/06/23 10:26:32;;;;;;;3.35;2.63;;;32.20;58.40;;;;;;4921950;29;20436;-86
2022/06/23 10:29:15;;;;;;;4.35;2.55;;;32.80;57.60;;;;;;4939167;29;20047;-89
2022/06/23 10:31:41;;;;;;;4.50;2.38;;;32.90;56.60;;;;;;4922690;29;20484;-88
2022/06/23 10:34:31;;;;;;;2.67;2.15;;;33.40;55.40;;;;;;4938932;29;20027;-87
2022/06/23 10:37:19;;;;;;;3.55;2.17;;;33.40;54.20;;;;;;4939227;29;20169;-87
2022/06/23 10:40:14;;;;;;;;;;;33.50;52.80;;;;;;4939437;29;20027;-83
2022/06/23 10:42:47;;;;;;;2.53;2.30;;;33.40;52.00;;;;;;4887299;29;19908;-86
2022/06/23 10:45:25;;;;;;;4.20;2.20;;;33.90;51.80;;;;;;4938988;29;20083;-86
2022/06/23 10:48:02;;;;;;;2.40;2.20;;;34.40;50.80;;;;;;4922035;29;20472;-86
2022/06/23 10:50:49;;;;;;;3.20;2.80;;;34.90;49.40;;;;;;4938748;29;20024;-89
2022/06/23 10:53:51;;;;;;;4.40;1.85;;;35.30;48.30;;;;;;4938446;29;20047;-87
2022/06/23 10:56:50;;;;;;;3.72;2.35;;;35.50;48.00;;;;;;4922058;29;20420;-86
2022/06/23 11:00:01;;;;;;;3.00;2.70;;;35.10;46.80;;;;;;4938293;29;20584;-86
2022/06/23 11:02:48;;;;;;;3.60;2.53;;;34.50;47.00;;;;;;4930002;29;20036;-85
2022/06/23 11:05:29;;;;;;;3.83;2.38;;;33.00;49.00;;;;;;4921460;29;20031;-84
2022/06/23 11:08:11;;;;;;;4.72;2.47;;;32.60;50.10;;;;;;4921166;29;20035;-86
2022/06/23 11:11:06;;;;;;;5.55;2.72;;;33.10;51.00;;;;;;4937975;29;20024;-83
2022/06/23 11:13:59;;;;;;;3.53;2.20;;;32.60;51.40;;;;;;4937636;29;20035;-84
2022/06/23 11:16:43;;;;;;;4.57;2.20;;;33.40;49.50;;;;;;4920457;29;20024;-83
2022/06/23 11:19:48;;;;;;;2.65;2.45;;;34.00;47.60;;;;;;4937473;29;20035;-84
2022/06/23 11:22:32;;;;;;;2.28;1.98;;;33.40;47.30;;;;;;4937830;29;20044;-80
2022/06/23 11:25:09;;;;;;;2.05;1.83;;;33.60;47.50;;;;;;4920679;29;20028;-83
2022/06/23 11:27:38;;;;;;;6.57;2.37;;;34.40;45.70;;;;;;4920649;29;20051;-82
2022/06/23 11:30:22;;;;;;;3.72;2.55;;;34.60;44.60;;;;;;4920207;29;20031;-83
2022/06/23 11:33:21;;;;;;;2.47;1.90;;;34.40;44.70;;;;;;4937436;29;20483;-84
2022/06/23 11:36:19;;;;;;;4.32;2.47;;;34.50;44.20;;;;;;4937171;29;20496;-83
2022/06/23 11:39:03;;;;;;;5.10;2.00;;;35.40;43.20;;;;;;4937588;29;20083;-83
2022/06/23 11:41:50;;;;;;;2.03;1.80;;;35.70;42.70;;;;;;4937427;29;20272;-86
2022/06/23 11:44:48;;;;;;;2.47;1.98;;;35.30;42.70;;;;;;4936936;29;20116;-84
2022/06/23 11:47:52;;;;;;;1.90;1.80;;;34.10;43.60;;;;;;4920251;29;20464;-85
2022/06/23 11:50:35;;;;;;;3.28;1.80;;;34.20;43.90;;;;;;4937364;29;20114;-85
2022/06/23 11:53:37;;;;;;;5.40;2.08;;;34.10;43.80;;;;;;4920550;29;20539;-85
2022/06/23 11:56:36;;;;;;;2.35;1.85;;;33.40;46.00;;;;;;4937310;29;20024;-83
2022/06/23 11:59:19;;;;;;;3.70;1.95;;;32.60;47.00;;;;;;4937693;29;20376;-86
2022/06/23 12:01:45;;;;;;;3.78;2.03;;;33.10;46.80;;;;;;4920192;29;20066;-84
2022/06/23 12:04:33;;;;;;;5.72;2.15;;;33.50;45.10;;;;;;4920341;29;20159;-86
2022/06/23 12:07:10;;;;;;;2.43;2.17;;;33.10;44.90;;;;;;4920446;29;20028;-84
2022/06/23 12:09:48;;;;;;;4.30;2.20;;;32.20;46.20;;;;;;4920506;29;20042;-83
2022/06/23 12:12:14;;;;;;;3.42;2.05;;;32.40;45.30;;;;;;4937273;29;20031;-83
2022/06/23 12:14:40;;;;;;;3.97;1.65;;;33.30;46.00;;;;;;4937132;29;20036;-86
2022/06/23 12:17:18;;;;;;;1.88;1.67;;;34.60;43.80;;;;;;4937158;29;20381;-85
2022/06/23 12:20:03;;;;;;;4.70;1.70;;;35.00;41.70;;;;;;4937593;29;20020;-83
2022/06/23 12:22:41;;;;;;;2.55;1.70;;;35.80;40.90;;;;;;4937286;29;20092;-87
2022/06/23 12:25:09;;;;;;;1.73;1.60;;;36.30;40.50;;;;;;4920662;29;20059;-86
2022/06/23 12:28:08;;;;;;;1.88;1.70;;;35.90;39.90;;;;;;4937384;29;20047;-83
2022/06/23 12:30:43;;;;;;;2.38;1.90;;;35.00;41.00;;;;;;4920066;29;20067;-86
2022/06/23 12:33:20;;;;;;;2.95;1.52;;;35.10;41.10;;;;;;4937161;29;20027;-85
2022/06/23 12:35:54;;;;;;;2.47;1.83;;;35.70;40.90;;;;;;4937388;29;20115;-85
2022/06/23 12:38:41;;;;;;;2.13;1.92;;;36.20;38.90;;;;;;4937282;29;20032;-85
2022/06/23 12:41:16;;;;;;;2.75;1.75;;;37.00;37.90;;;;;;4936575;29;20028;-84
2022/06/23 12:43:51;;;;;;;11.18;1.75;;;37.10;37.60;;;;;;4936875;29;20047;-85
2022/06/23 12:46:54;;;;;;;1.58;1.48;;;37.40;38.10;;;;;;4919865;29;20055;-85
2022/06/23 12:49:50;;;;;;;4.38;1.83;;;37.30;36.80;;;;;;4936596;29;20108;-85
2022/06/23 12:52:27;;;;;;;2.03;1.48;;;36.40;37.40;;;;;;4937173;29;20031;-85
2022/06/23 12:55:17;;;;;;;3.40;1.27;;;36.80;38.10;;;;;;4936617;29;20427;-84
2022/06/23 12:58:11;;;;;;;3.08;1.50;;;37.20;36.50;;;;;;4919693;29;20032;-84
2022/06/23 13:00:57;;;;;;;2.60;1.50;;;37.30;36.00;;;;;;4936837;29;20039;-85
2022/06/23 13:03:48;;;;;;;1.75;1.40;;;35.90;36.00;;;;;;4936926;29;20028;-85
2022/06/23 13:06:27;;;;;;;1.58;1.45;;;34.70;36.90;;;;;;4936615;29;20028;-83
2022/06/23 13:09:11;;;;;;;1.58;1.17;;;34.20;38.30;;;;;;4936730;29;20120;-82
2022/06/23 13:11:47;;;;;;;3.08;1.60;;;33.20;38.60;;;;;;4937155;29;20024;-84
2022/06/23 13:14:33;;;;;;;4.50;1.70;;;32.70;39.50;;;;;;4923847;29;20436;-82
2022/06/23 13:17:26;;;;;;;3.05;1.45;;;32.90;39.60;;;;;;4940255;29;20034;-83
2022/06/23 13:20:06;;;;;;;4.70;1.42;;;32.70;45.30;;;;;;4923359;29;20063;-83
2022/06/23 13:22:48;;;;;;;9.05;1.70;;;32.40;43.10;;;;;;4939879;29;20028;-83
2022/06/23 13:25:24;;;;;;;1.55;1.42;;;32.90;45.70;;;;;;4940283;29;20030;-83
2022/06/23 13:27:53;;;;;;;3.80;1.00;;;33.70;40.50;;;;;;4923136;29;20144;-85
2022/06/23 13:30:22;;;;;;;1.52;1.42;;;34.20;38.60;;;;;;4940164;29;20032;-83
2022/06/23 13:32:57;;;;;;;2.60;1.48;;;34.50;38.70;;;;;;4922960;29;20115;-85
2022/06/23 13:35:32;;;;;;;1.48;1.27;;;35.20;38.10;;;;;;4939856;29;20031;-86
2022/06/23 13:38:10;;;;;;;2.35;1.23;;;35.90;36.30;;;;;;4939893;29;20055;-83
2022/06/23 13:41:04;;;;;;;3.35;1.40;;;35.90;35.40;;;;;;4922895;29;20127;-85
2022/06/23 13:43:36;;;;;;;1.98;0.95;;;36.00;35.50;;;;;;4900288;29;20094;-77
2022/06/23 13:46:07;;;;;;;2.35;1.05;;;34.80;41.10;;;;;;4938701;29;20070;-75
2022/06/23 13:48:57;;;;;;;1.60;1.10;;;35.70;39.90;;;;;;4939400;29;20039;-74
2022/06/23 13:51:33;;;;;;;0.93;0.93;;;36.80;36.70;;;;;;4921964;29;20357;-75
2022/06/23 13:54:10;;;;;;;1.27;1.25;;;36.80;35.50;;;;;;4938969;29;20024;-76
2022/06/23 13:56:39;;;;;;;2.42;1.20;;;37.50;35.60;;;;;;4939168;29;20028;-75
2022/06/23 13:59:18;;;;;;;1.15;1.00;;;37.40;35.00;;;;;;4921769;29;20031;-76